sensor_id;sensor_type;location;lat;lon;timestamp;temperature;humidity
16823;DHT22;8528;49.976;11.858;2023-02-13T00:01:17;-1.50;99.90
16823;DHT22;8528;49.976;11.858;2023-02-13T00:03:44;-1.60;99.90
16823;DHT22;8528;49.976;11.858;2023-02-13T00:06:11;-1.60;99.90
16823;DHT22;8528;49.976;11.858;2023-02-13T00:08:38;-1.60;99.90
16823;DHT22;8528;49.976;11.858;2023-02-13T00:11:05;-1.60;99.90
16823;DHT22;8528;49.976;11.858;2023-02-13T00:13:33;-1.60;99.90
16823;DHT22;8528;49.976;11.858;2023-02-13T00:16:02;-1.60;99.90
16823;DHT22;8528;49.976;11.858;2023-02-13T00:18:33;-1.70;99.90
16823;DHT22;8528;49.976;11.858;2023-02-13T00:21:02;-1.70;99.90
16823;DHT22;8528;49.976;11.858;2023-02-13T00:23:30;-1.70;99.90
16823;DHT22;8528;49.976;11.858;2023-02-13T00:25:58;-1.70;99.90
16823;DHT22;8528;49.976;11.858;2023-02-13T00:28:25;-1.80;99.90
16823;DHT22;8528;49.976;11.858;2023-02-13T00:30:52;-1.80;99.90
16823;DHT22;8528;49.976;11.858;2023-02-13T00:33:40;-1.80;99.90
16823;DHT22;8528;49.976;11.858;2023-02-13T00:36:10;-1.80;99.90
16823;DHT22;8528;49.976;11.858;2023-02-13T00:38:38;-1.80;99.90
16823;DHT22;8528;49.976;11.858;2023-02-13T00:41:06;-1.90;99.90
16823;DHT22;8528;49.976;11.858;2023-02-13T00:43:33;-1.80;99.90
16823;DHT22;8528;49.976;11.858;2023-02-13T00:46:01;-1.90;99.90
16823;DHT22;8528;49.976;11.858;2023-02-13T00:48:29;-1.80;99.90
16823;DHT22;8528;49.976;11.858;2023-02-13T00:50:56;-1.80;99.90
16823;DHT22;8528;49.976;11.858;2023-02-13T00:53:25;-1.90;99.90
16823;DHT22;8528;49.976;11.858;2023-02-13T00:55:52;-1.80;99.90
16823;DHT22;8528;49.976;11.858;2023-02-13T00:58:19;-1.80;99.90
16823;DHT22;8528;49.976;11.858;2023-02-13T01:00:46;-1.90;99.90
16823;DHT22;8528;49.976;11.858;2023-02-13T01:03:15;-1.90;99.90
16823;DHT22;8528;49.976;11.858;2023-02-13T01:05:43;-1.90;99.90
16823;DHT22;8528;49.976;11.858;2023-02-13T01:08:10;-1.90;99.90
16823;DHT22;8528;49.976;11.858;2023-02-13T01:10:38;-1.90;99.90
16823;DHT22;8528;49.976;11.858;2023-02-13T01:13:07;-1.90;99.90
16823;DHT22;8528;49.976;11.858;2023-02-13T01:15:34;-1.90;99.90
16823;DHT22;8528;49.976;11.858;2023-02-13T01:18:01;-1.90;99.90
16823;DHT22;8528;49.976;11.858;2023-02-13T01:20:29;-1.80;99.90
16823;DHT22;8528;49.976;11.858;2023-02-13T01:22:56;-1.90;99.90
16823;DHT22;8528;49.976;11.858;2023-02-13T01:25:23;-1.80;99.90
16823;DHT22;8528;49.976;11.858;2023-02-13T01:27:51;-1.80;99.90
16823;DHT22;8528;49.976;11.858;2023-02-13T01:30:18;-1.80;99.90
16823;DHT22;8528;49.976;11.858;2023-02-13T01:32:46;-1.80;99.90
16823;DHT22;8528;49.976;11.858;2023-02-13T01:35:14;-1.70;99.90
16823;DHT22;8528;49.976;11.858;2023-02-13T01:37:41;-1.70;99.90
16823;DHT22;8528;49.976;11.858;2023-02-13T01:40:12;-1.60;99.90
16823;DHT22;8528;49.976;11.858;2023-02-13T01:42:39;-1.60;99.90
16823;DHT22;8528;49.976;11.858;2023-02-13T01:48:02;-1.50;99.90
16823;DHT22;8528;49.976;11.858;2023-02-13T01:50:36;-1.50;99.90
16823;DHT22;8528;49.976;11.858;2023-02-13T01:53:17;-1.40;99.90
16823;DHT22;8528;49.976;11.858;2023-02-13T01:55:53;-1.40;99.90
16823;DHT22;8528;49.976;11.858;2023-02-13T01:58:25;-1.40;99.90
16823;DHT22;8528;49.976;11.858;2023-02-13T02:00:52;-1.40;99.90
16823;DHT22;8528;49.976;11.858;2023-02-13T02:03:34;-1.30;99.90
16823;DHT22;8528;49.976;11.858;2023-02-13T02:06:28;-1.30;99.90
16823;DHT22;8528;49.976;11.858;2023-02-13T02:09:00;-1.30;99.90
16823;DHT22;8528;49.976;11.858;2023-02-13T02:12:01;-1.30;99.90
16823;DHT22;8528;49.976;11.858;2023-02-13T02:14:30;-1.30;99.90
16823;DHT22;8528;49.976;11.858;2023-02-13T02:16:57;-1.30;99.90
16823;DHT22;8528;49.976;11.858;2023-02-13T02:22:42;-1.20;99.90
16823;DHT22;8528;49.976;11.858;2023-02-13T02:28:19;-1.20;99.90
16823;DHT22;8528;49.976;11.858;2023-02-13T02:33:47;-1.20;99.90
16823;DHT22;8528;49.976;11.858;2023-02-13T02:36:41;-1.20;99.90
16823;DHT22;8528;49.976;11.858;2023-02-13T02:39:12;-1.30;99.90
16823;DHT22;8528;49.976;11.858;2023-02-13T02:47:13;-1.40;99.90
16823;DHT22;8528;49.976;11.858;2023-02-13T02:50:15;-1.50;99.90
16823;DHT22;8528;49.976;11.858;2023-02-13T02:53:08;-1.60;99.90
16823;DHT22;8528;49.976;11.858;2023-02-13T02:55:47;-1.60;99.90
16823;DHT22;8528;49.976;11.858;2023-02-13T02:58:27;-1.70;99.90
16823;DHT22;8528;49.976;11.858;2023-02-13T03:01:16;-1.70;99.90
16823;DHT22;8528;49.976;11.858;2023-02-13T03:04:03;-1.80;99.90
16823;DHT22;8528;49.976;11.858;2023-02-13T03:06:55;-1.80;99.90
16823;DHT22;8528;49.976;11.858;2023-02-13T03:09:28;-1.90;99.90
16823;DHT22;8528;49.976;11.858;2023-02-13T03:12:19;-1.90;99.90
16823;DHT22;8528;49.976;11.858;2023-02-13T03:15:06;-2.00;99.90
16823;DHT22;8528;49.976;11.858;2023-02-13T03:17:33;-2.00;99.90
16823;DHT22;8528;49.976;11.858;2023-02-13T03:20:27;-2.10;99.90
16823;DHT22;8528;49.976;11.858;2023-02-13T03:23:19;-2.10;99.90
16823;DHT22;8528;49.976;11.858;2023-02-13T03:29:07;-2.20;99.90
16823;DHT22;8528;49.976;11.858;2023-02-13T03:31:41;-2.20;99.90
16823;DHT22;8528;49.976;11.858;2023-02-13T03:34:16;-2.30;99.90
16823;DHT22;8528;49.976;11.858;2023-02-13T03:45:15;-2.40;99.90
16823;DHT22;8528;49.976;11.858;2023-02-13T03:48:04;-2.50;99.90
16823;DHT22;8528;49.976;11.858;2023-02-13T03:50:41;-2.50;99.90
16823;DHT22;8528;49.976;11.858;2023-02-13T03:53:10;-2.50;99.90
16823;DHT22;8528;49.976;11.858;2023-02-13T03:55:42;-2.60;99.90
16823;DHT22;8528;49.976;11.858;2023-02-13T03:58:43;-2.60;99.90
16823;DHT22;8528;49.976;11.858;2023-02-13T04:01:30;-2.60;99.90
16823;DHT22;8528;49.976;11.858;2023-02-13T04:04:22;-2.60;99.90
16823;DHT22;8528;49.976;11.858;2023-02-13T04:09:27;-2.60;99.90
16823;DHT22;8528;49.976;11.858;2023-02-13T04:17:12;-2.50;99.90
16823;DHT22;8528;49.976;11.858;2023-02-13T04:19:40;-2.40;99.90
16823;DHT22;8528;49.976;11.858;2023-02-13T04:22:07;-2.40;99.90
16823;DHT22;8528;49.976;11.858;2023-02-13T04:24:37;-2.30;99.90
16823;DHT22;8528;49.976;11.858;2023-02-13T04:27:04;-2.30;99.90
16823;DHT22;8528;49.976;11.858;2023-02-13T04:29:31;-2.30;99.90
16823;DHT22;8528;49.976;11.858;2023-02-13T04:31:57;-2.20;99.90
16823;DHT22;8528;49.976;11.858;2023-02-13T04:34:25;-2.10;99.90
16823;DHT22;8528;49.976;11.858;2023-02-13T04:36:51;-2.10;99.90
16823;DHT22;8528;49.976;11.858;2023-02-13T04:39:18;-2.10;99.90
16823;DHT22;8528;49.976;11.858;2023-02-13T04:41:45;-2.10;99.90
16823;DHT22;8528;49.976;11.858;2023-02-13T04:44:12;-2.00;99.90
16823;DHT22;8528;49.976;11.858;2023-02-13T04:46:38;-1.90;99.90
16823;DHT22;8528;49.976;11.858;2023-02-13T04:49:05;-1.80;99.90
16823;DHT22;8528;49.976;11.858;2023-02-13T04:51:32;-1.80;99.90
16823;DHT22;8528;49.976;11.858;2023-02-13T04:53:59;-1.80;99.90
16823;DHT22;8528;49.976;11.858;2023-02-13T04:56:26;-1.80;99.90
16823;DHT22;8528;49.976;11.858;2023-02-13T04:58:53;-1.70;99.90
16823;DHT22;8528;49.976;11.858;2023-02-13T05:01:20;-1.70;99.90
16823;DHT22;8528;49.976;11.858;2023-02-13T05:03:48;-1.70;99.90
16823;DHT22;8528;49.976;11.858;2023-02-13T05:06:14;-1.60;99.90
16823;DHT22;8528;49.976;11.858;2023-02-13T05:08:41;-1.60;99.90
16823;DHT22;8528;49.976;11.858;2023-02-13T05:11:08;-1.60;99.90
16823;DHT22;8528;49.976;11.858;2023-02-13T05:13:34;-1.60;99.90
16823;DHT22;8528;49.976;11.858;2023-02-13T05:16:01;-1.50;99.90
16823;DHT22;8528;49.976;11.858;2023-02-13T05:18:28;-1.60;99.90
16823;DHT22;8528;49.976;11.858;2023-02-13T05:20:55;-1.50;99.90
16823;DHT22;8528;49.976;11.858;2023-02-13T05:23:41;-1.50;99.90
16823;DHT22;8528;49.976;11.858;2023-02-13T05:26:08;-1.50;99.90
16823;DHT22;8528;49.976;11.858;2023-02-13T05:28:34;-1.50;99.90
16823;DHT22;8528;49.976;11.858;2023-02-13T05:31:20;-1.50;99.90
16823;DHT22;8528;49.976;11.858;2023-02-13T05:33:47;-1.60;99.90
16823;DHT22;8528;49.976;11.858;2023-02-13T05:36:14;-1.50;99.90
16823;DHT22;8528;49.976;11.858;2023-02-13T05:38:41;-1.60;99.90
16823;DHT22;8528;49.976;11.858;2023-02-13T05:41:08;-1.60;99.90
16823;DHT22;8528;49.976;11.858;2023-02-13T05:43:35;-1.60;99.90
16823;DHT22;8528;49.976;11.858;2023-02-13T05:46:04;-1.60;99.90
16823;DHT22;8528;49.976;11.858;2023-02-13T05:48:31;-1.60;99.90
16823;DHT22;8528;49.976;11.858;2023-02-13T05:50:58;-1.60;99.90
16823;DHT22;8528;49.976;11.858;2023-02-13T05:53:25;-1.60;99.90
16823;DHT22;8528;49.976;11.858;2023-02-13T05:55:52;-1.60;99.90
16823;DHT22;8528;49.976;11.858;2023-02-13T05:58:20;-1.50;99.90
16823;DHT22;8528;49.976;11.858;2023-02-13T06:00:47;-1.60;99.90
16823;DHT22;8528;49.976;11.858;2023-02-13T06:03:14;-1.50;99.90
16823;DHT22;8528;49.976;11.858;2023-02-13T06:05:41;-1.50;99.90
16823;DHT22;8528;49.976;11.858;2023-02-13T06:08:08;-1.50;99.90
16823;DHT22;8528;49.976;11.858;2023-02-13T06:10:34;-1.40;99.90
16823;DHT22;8528;49.976;11.858;2023-02-13T06:13:01;-1.30;99.90
16823;DHT22;8528;49.976;11.858;2023-02-13T06:15:28;-1.30;99.90
16823;DHT22;8528;49.976;11.858;2023-02-13T06:17:55;-1.30;99.90
16823;DHT22;8528;49.976;11.858;2023-02-13T06:20:22;-1.30;99.90
16823;DHT22;8528;49.976;11.858;2023-02-13T06:22:49;-1.30;99.90
16823;DHT22;8528;49.976;11.858;2023-02-13T06:25:17;-1.30;99.90
16823;DHT22;8528;49.976;11.858;2023-02-13T06:27:45;-1.30;99.90
16823;DHT22;8528;49.976;11.858;2023-02-13T06:30:12;-1.30;99.90
16823;DHT22;8528;49.976;11.858;2023-02-13T06:32:40;-1.30;99.90
16823;DHT22;8528;49.976;11.858;2023-02-13T06:35:08;-1.30;99.90
16823;DHT22;8528;49.976;11.858;2023-02-13T06:37:38;-1.20;99.90
16823;DHT22;8528;49.976;11.858;2023-02-13T06:40:06;-1.20;99.90
16823;DHT22;8528;49.976;11.858;2023-02-13T06:42:36;-1.20;99.90
16823;DHT22;8528;49.976;11.858;2023-02-13T06:45:03;-1.10;99.90
16823;DHT22;8528;49.976;11.858;2023-02-13T06:47:31;-1.10;99.90
16823;DHT22;8528;49.976;11.858;2023-02-13T06:49:58;-1.00;99.90
16823;DHT22;8528;49.976;11.858;2023-02-13T06:52:25;-1.00;99.90
16823;DHT22;8528;49.976;11.858;2023-02-13T06:54:58;-1.00;99.90
16823;DHT22;8528;49.976;11.858;2023-02-13T06:57:26;-0.90;99.90
16823;DHT22;8528;49.976;11.858;2023-02-13T06:59:52;-0.80;99.90
16823;DHT22;8528;49.976;11.858;2023-02-13T07:02:19;-0.80;99.90
16823;DHT22;8528;49.976;11.858;2023-02-13T07:04:46;-0.70;99.90
16823;DHT22;8528;49.976;11.858;2023-02-13T07:07:12;-0.60;99.90
16823;DHT22;8528;49.976;11.858;2023-02-13T07:09:40;-0.50;99.90
16823;DHT22;8528;49.976;11.858;2023-02-13T07:12:06;-0.40;99.90
16823;DHT22;8528;49.976;11.858;2023-02-13T07:14:34;-0.40;99.90
16823;DHT22;8528;49.976;11.858;2023-02-13T07:17:00;-0.30;99.90
16823;DHT22;8528;49.976;11.858;2023-02-13T07:19:28;-0.10;99.90
16823;DHT22;8528;49.976;11.858;2023-02-13T07:21:55;-0.10;99.90
16823;DHT22;8528;49.976;11.858;2023-02-13T07:24:22;0.00;99.90
16823;DHT22;8528;49.976;11.858;2023-02-13T07:26:49;0.10;99.90
16823;DHT22;8528;49.976;11.858;2023-02-13T07:29:16;0.20;99.90
16823;DHT22;8528;49.976;11.858;2023-02-13T07:31:43;0.30;99.90
16823;DHT22;8528;49.976;11.858;2023-02-13T07:34:09;0.40;99.90
16823;DHT22;8528;49.976;11.858;2023-02-13T07:36:37;0.50;99.90
16823;DHT22;8528;49.976;11.858;2023-02-13T07:39:03;0.60;99.90
16823;DHT22;8528;49.976;11.858;2023-02-13T07:41:31;0.70;99.90
16823;DHT22;8528;49.976;11.858;2023-02-13T07:43:57;0.90;99.90
16823;DHT22;8528;49.976;11.858;2023-02-13T07:46:24;1.00;99.90
16823;DHT22;8528;49.976;11.858;2023-02-13T07:48:51;1.20;99.90
16823;DHT22;8528;49.976;11.858;2023-02-13T07:51:18;1.20;99.90
16823;DHT22;8528;49.976;11.858;2023-02-13T07:53:46;1.30;99.90
16823;DHT22;8528;49.976;11.858;2023-02-13T07:56:13;1.50;99.90
16823;DHT22;8528;49.976;11.858;2023-02-13T07:58:40;1.60;99.90
16823;DHT22;8528;49.976;11.858;2023-02-13T08:01:08;1.70;99.90
16823;DHT22;8528;49.976;11.858;2023-02-13T08:03:36;1.70;99.90
16823;DHT22;8528;49.976;11.858;2023-02-13T08:06:04;1.90;99.90
16823;DHT22;8528;49.976;11.858;2023-02-13T08:08:31;2.30;99.90
16823;DHT22;8528;49.976;11.858;2023-02-13T08:11:31;3.10;99.90
16823;DHT22;8528;49.976;11.858;2023-02-13T08:14:21;4.90;99.90
16823;DHT22;8528;49.976;11.858;2023-02-13T08:16:59;7.00;99.90
16823;DHT22;8528;49.976;11.858;2023-02-13T08:19:54;8.80;99.90
16823;DHT22;8528;49.976;11.858;2023-02-13T08:22:21;10.00;99.90
16823;DHT22;8528;49.976;11.858;2023-02-13T08:24:48;11.00;99.90
16823;DHT22;8528;49.976;11.858;2023-02-13T08:27:15;12.60;99.90
16823;DHT22;8528;49.976;11.858;2023-02-13T08:29:42;13.70;99.90
16823;DHT22;8528;49.976;11.858;2023-02-13T08:32:08;15.50;99.90
16823;DHT22;8528;49.976;11.858;2023-02-13T08:34:35;17.10;96.10
16823;DHT22;8528;49.976;11.858;2023-02-13T08:37:05;18.60;85.30
16823;DHT22;8528;49.976;11.858;2023-02-13T08:39:31;19.10;71.80
16823;DHT22;8528;49.976;11.858;2023-02-13T08:42:10;19.80;68.60
16823;DHT22;8528;49.976;11.858;2023-02-13T08:44:55;20.90;61.10
16823;DHT22;8528;49.976;11.858;2023-02-13T08:47:24;21.70;58.00
16823;DHT22;8528;49.976;11.858;2023-02-13T08:49:51;22.90;54.30
16823;DHT22;8528;49.976;11.858;2023-02-13T08:52:17;24.00;51.40
16823;DHT22;8528;49.976;11.858;2023-02-13T08:54:44;24.50;48.50
16823;DHT22;8528;49.976;11.858;2023-02-13T08:57:11;24.70;46.50
16823;DHT22;8528;49.976;11.858;2023-02-13T08:59:38;25.80;43.90
16823;DHT22;8528;49.976;11.858;2023-02-13T09:02:05;26.20;43.10
16823;DHT22;8528;49.976;11.858;2023-02-13T09:04:32;26.90;42.10
16823;DHT22;8528;49.976;11.858;2023-02-13T09:07:00;27.10;39.90
16823;DHT22;8528;49.976;11.858;2023-02-13T09:09:26;27.10;39.10
16823;DHT22;8528;49.976;11.858;2023-02-13T09:11:53;26.50;39.90
16823;DHT22;8528;49.976;11.858;2023-02-13T09:14:23;26.70;40.80
16823;DHT22;8528;49.976;11.858;2023-02-13T09:16:50;27.40;39.50
16823;DHT22;8528;49.976;11.858;2023-02-13T09:19:18;28.10;39.10
16823;DHT22;8528;49.976;11.858;2023-02-13T09:21:44;28.50;37.80
16823;DHT22;8528;49.976;11.858;2023-02-13T09:24:12;29.20;36.80
16823;DHT22;8528;49.976;11.858;2023-02-13T09:26:38;29.90;36.20
16823;DHT22;8528;49.976;11.858;2023-02-13T09:29:05;30.00;36.50
16823;DHT22;8528;49.976;11.858;2023-02-13T09:31:32;30.30;35.40
16823;DHT22;8528;49.976;11.858;2023-02-13T09:33:59;30.30;35.10
16823;DHT22;8528;49.976;11.858;2023-02-13T09:36:26;30.40;34.30
16823;DHT22;8528;49.976;11.858;2023-02-13T09:38:54;31.30;33.90
16823;DHT22;8528;49.976;11.858;2023-02-13T09:41:25;31.40;34.20
16823;DHT22;8528;49.976;11.858;2023-02-13T09:43:57;31.50;33.60
16823;DHT22;8528;49.976;11.858;2023-02-13T09:46:37;31.60;33.50
16823;DHT22;8528;49.976;11.858;2023-02-13T09:49:10;32.20;32.90
16823;DHT22;8528;49.976;11.858;2023-02-13T09:51:40;32.00;32.80
16823;DHT22;8528;49.976;11.858;2023-02-13T09:54:14;32.60;32.40
16823;DHT22;8528;49.976;11.858;2023-02-13T09:56:54;31.60;31.80
16823;DHT22;8528;49.976;11.858;2023-02-13T09:59:34;31.50;33.20
16823;DHT22;8528;49.976;11.858;2023-02-13T10:13:43;29.30;32.60
16823;DHT22;8528;49.976;11.858;2023-02-13T10:16:18;27.10;34.00
16823;DHT22;8528;49.976;11.858;2023-02-13T10:18:51;26.80;35.60
16823;DHT22;8528;49.976;11.858;2023-02-13T10:21:23;27.80;35.30
16823;DHT22;8528;49.976;11.858;2023-02-13T10:27:19;28.00;33.90
16823;DHT22;8528;49.976;11.858;2023-02-13T10:29:52;29.00;33.00
16823;DHT22;8528;49.976;11.858;2023-02-13T10:35:19;30.80;31.10
16823;DHT22;8528;49.976;11.858;2023-02-13T10:37:47;30.50;31.30
16823;DHT22;8528;49.976;11.858;2023-02-13T10:40:18;29.10;32.20
16823;DHT22;8528;49.976;11.858;2023-02-13T10:43:01;28.40;33.30
16823;DHT22;8528;49.976;11.858;2023-02-13T10:51:44;29.00;32.80
16823;DHT22;8528;49.976;11.858;2023-02-13T11:00:31;27.80;34.20
16823;DHT22;8528;49.976;11.858;2023-02-13T11:03:00;28.10;33.40
16823;DHT22;8528;49.976;11.858;2023-02-13T11:05:46;26.90;35.40
16823;DHT22;8528;49.976;11.858;2023-02-13T11:08:20;25.50;36.90
16823;DHT22;8528;49.976;11.858;2023-02-13T11:10:48;23.60;39.10
16823;DHT22;8528;49.976;11.858;2023-02-13T11:13:22;21.60;42.60
16823;DHT22;8528;49.976;11.858;2023-02-13T11:18:31;19.00;47.50
16823;DHT22;8528;49.976;11.858;2023-02-13T11:21:07;18.00;50.00
16823;DHT22;8528;49.976;11.858;2023-02-13T11:23:43;17.60;51.40
16823;DHT22;8528;49.976;11.858;2023-02-13T11:26:14;17.40;52.00
16823;DHT22;8528;49.976;11.858;2023-02-13T11:29:16;17.50;52.40
16823;DHT22;8528;49.976;11.858;2023-02-13T11:31:43;17.80;51.90
16823;DHT22;8528;49.976;11.858;2023-02-13T11:37:48;18.40;50.10
16823;DHT22;8528;49.976;11.858;2023-02-13T11:40:29;18.00;50.90
16823;DHT22;8528;49.976;11.858;2023-02-13T11:46:24;16.60;53.70
16823;DHT22;8528;49.976;11.858;2023-02-13T11:49:00;16.00;54.70
16823;DHT22;8528;49.976;11.858;2023-02-13T11:51:40;15.50;56.30
16823;DHT22;8528;49.976;11.858;2023-02-13T11:57:24;15.00;59.10
16823;DHT22;8528;49.976;11.858;2023-02-13T12:06:20;14.50;59.20
16823;DHT22;8528;49.976;11.858;2023-02-13T12:08:48;14.00;61.30
16823;DHT22;8528;49.976;11.858;2023-02-13T12:13:49;13.40;63.30
16823;DHT22;8528;49.976;11.858;2023-02-13T12:16:44;13.10;64.60
16823;DHT22;8528;49.976;11.858;2023-02-13T12:19:18;13.10;65.70
16823;DHT22;8528;49.976;11.858;2023-02-13T12:22:08;13.40;65.30
16823;DHT22;8528;49.976;11.858;2023-02-13T12:39:25;16.10;58.20
16823;DHT22;8528;49.976;11.858;2023-02-13T12:45:29;16.40;56.80
16823;DHT22;8528;49.976;11.858;2023-02-13T13:03:17;22.00;45.80
16823;DHT22;8528;49.976;11.858;2023-02-13T13:06:08;20.60;47.90
16823;DHT22;8528;49.976;11.858;2023-02-13T13:14:53;16.90;54.90
16823;DHT22;8528;49.976;11.858;2023-02-13T13:23:45;15.80;57.70
16823;DHT22;8528;49.976;11.858;2023-02-13T13:28:49;14.70;60.70
16823;DHT22;8528;49.976;11.858;2023-02-13T13:31:20;14.30;62.60
16823;DHT22;8528;49.976;11.858;2023-02-13T13:33:49;14.40;62.50
16823;DHT22;8528;49.976;11.858;2023-02-13T13:42:17;16.60;59.90
16823;DHT22;8528;49.976;11.858;2023-02-13T13:50:38;21.00;49.80
16823;DHT22;8528;49.976;11.858;2023-02-13T13:53:13;21.80;46.80
16823;DHT22;8528;49.976;11.858;2023-02-13T14:01:26;22.80;44.40
16823;DHT22;8528;49.976;11.858;2023-02-13T14:09:38;22.70;44.90
16823;DHT22;8528;49.976;11.858;2023-02-13T14:14:52;23.00;44.50
16823;DHT22;8528;49.976;11.858;2023-02-13T14:25:45;20.10;49.00
16823;DHT22;8528;49.976;11.858;2023-02-13T14:28:21;19.80;49.60
16823;DHT22;8528;49.976;11.858;2023-02-13T14:30:50;19.00;51.30
16823;DHT22;8528;49.976;11.858;2023-02-13T14:33:26;17.50;53.70
16823;DHT22;8528;49.976;11.858;2023-02-13T14:36:07;15.90;57.60
16823;DHT22;8528;49.976;11.858;2023-02-13T14:38:35;14.50;61.00
16823;DHT22;8528;49.976;11.858;2023-02-13T14:41:02;13.70;64.10
16823;DHT22;8528;49.976;11.858;2023-02-13T14:43:39;13.10;67.00
16823;DHT22;8528;49.976;11.858;2023-02-13T14:46:42;12.30;69.70
16823;DHT22;8528;49.976;11.858;2023-02-13T14:49:19;11.50;73.80
16823;DHT22;8528;49.976;11.858;2023-02-13T14:51:49;11.00;76.30
16823;DHT22;8528;49.976;11.858;2023-02-13T14:54:44;10.60;78.40
16823;DHT22;8528;49.976;11.858;2023-02-13T14:59:44;9.90;84.40
16823;DHT22;8528;49.976;11.858;2023-02-13T15:02:25;9.70;87.90
16823;DHT22;8528;49.976;11.858;2023-02-13T15:04:56;9.50;90.70
16823;DHT22;8528;49.976;11.858;2023-02-13T15:07:31;9.30;92.50
16823;DHT22;8528;49.976;11.858;2023-02-13T15:10:14;9.20;94.10
16823;DHT22;8528;49.976;11.858;2023-02-13T15:13:01;9.10;95.80
16823;DHT22;8528;49.976;11.858;2023-02-13T15:15:32;8.80;97.90
16823;DHT22;8528;49.976;11.858;2023-02-13T15:18:07;8.60;99.90
16823;DHT22;8528;49.976;11.858;2023-02-13T15:20:38;8.40;99.90
16823;DHT22;8528;49.976;11.858;2023-02-13T15:23:07;8.10;99.90
16823;DHT22;8528;49.976;11.858;2023-02-13T15:25:40;7.90;99.90
16823;DHT22;8528;49.976;11.858;2023-02-13T15:28:18;7.60;99.90
16823;DHT22;8528;49.976;11.858;2023-02-13T15:30:57;7.50;99.90
16823;DHT22;8528;49.976;11.858;2023-02-13T15:33:45;7.20;99.90
16823;DHT22;8528;49.976;11.858;2023-02-13T15:38:45;7.00;99.90
16823;DHT22;8528;49.976;11.858;2023-02-13T15:41:17;6.80;99.90
16823;DHT22;8528;49.976;11.858;2023-02-13T15:43:48;6.60;99.90
16823;DHT22;8528;49.976;11.858;2023-02-13T15:46:29;6.30;99.90
16823;DHT22;8528;49.976;11.858;2023-02-13T15:49:03;6.10;99.90
16823;DHT22;8528;49.976;11.858;2023-02-13T15:51:31;6.00;99.90
16823;DHT22;8528;49.976;11.858;2023-02-13T15:54:06;5.70;99.90
16823;DHT22;8528;49.976;11.858;2023-02-13T15:56:34;5.50;99.90
16823;DHT22;8528;49.976;11.858;2023-02-13T15:59:02;5.30;99.90
16823;DHT22;8528;49.976;11.858;2023-02-13T16:01:30;5.10;99.90
16823;DHT22;8528;49.976;11.858;2023-02-13T16:04:05;5.00;99.90
16823;DHT22;8528;49.976;11.858;2023-02-13T16:06:34;4.80;99.90
16823;DHT22;8528;49.976;11.858;2023-02-13T16:09:01;4.60;99.90
16823;DHT22;8528;49.976;11.858;2023-02-13T16:11:34;4.40;99.90
16823;DHT22;8528;49.976;11.858;2023-02-13T16:16:55;4.20;99.90
16823;DHT22;8528;49.976;11.858;2023-02-13T16:22:05;3.90;99.90
16823;DHT22;8528;49.976;11.858;2023-02-13T16:24:33;3.80;99.90
16823;DHT22;8528;49.976;11.858;2023-02-13T16:27:01;3.60;99.90
16823;DHT22;8528;49.976;11.858;2023-02-13T16:29:28;3.50;99.90
16823;DHT22;8528;49.976;11.858;2023-02-13T16:32:03;3.40;99.90
16823;DHT22;8528;49.976;11.858;2023-02-13T16:34:30;3.30;99.90
16823;DHT22;8528;49.976;11.858;2023-02-13T16:36:57;3.20;99.90
16823;DHT22;8528;49.976;11.858;2023-02-13T16:39:30;3.10;99.90
16823;DHT22;8528;49.976;11.858;2023-02-13T16:41:58;3.00;99.90
16823;DHT22;8528;49.976;11.858;2023-02-13T16:44:30;2.90;99.90
16823;DHT22;8528;49.976;11.858;2023-02-13T16:46:58;2.80;99.90
16823;DHT22;8528;49.976;11.858;2023-02-13T16:49:31;2.70;99.90
16823;DHT22;8528;49.976;11.858;2023-02-13T16:52:00;2.60;99.90
16823;DHT22;8528;49.976;11.858;2023-02-13T16:54:58;2.50;99.90
16823;DHT22;8528;49.976;11.858;2023-02-13T16:57:32;2.40;99.90
16823;DHT22;8528;49.976;11.858;2023-02-13T17:00:18;2.40;99.90
16823;DHT22;8528;49.976;11.858;2023-02-13T17:02:48;2.30;99.90
16823;DHT22;8528;49.976;11.858;2023-02-13T17:07:50;2.20;99.90
16823;DHT22;8528;49.976;11.858;2023-02-13T17:12:44;2.10;99.90
16823;DHT22;8528;49.976;11.858;2023-02-13T17:15:13;2.10;99.90
16823;DHT22;8528;49.976;11.858;2023-02-13T17:17:40;2.00;99.90
16823;DHT22;8528;49.976;11.858;2023-02-13T17:20:12;1.90;99.90
16823;DHT22;8528;49.976;11.858;2023-02-13T17:22:52;1.90;99.90
16823;DHT22;8528;49.976;11.858;2023-02-13T17:25:28;1.80;99.90
16823;DHT22;8528;49.976;11.858;2023-02-13T17:27:57;1.70;99.90
16823;DHT22;8528;49.976;11.858;2023-02-13T17:30:27;1.70;99.90
16823;DHT22;8528;49.976;11.858;2023-02-13T17:33:24;1.60;99.90
16823;DHT22;8528;49.976;11.858;2023-02-13T17:35:52;1.60;99.90
16823;DHT22;8528;49.976;11.858;2023-02-13T17:38:19;1.50;99.90
16823;DHT22;8528;49.976;11.858;2023-02-13T17:40:46;1.40;99.90
16823;DHT22;8528;49.976;11.858;2023-02-13T17:43:15;1.40;99.90
16823;DHT22;8528;49.976;11.858;2023-02-13T17:45:43;1.30;99.90
16823;DHT22;8528;49.976;11.858;2023-02-13T17:48:11;1.20;99.90
16823;DHT22;8528;49.976;11.858;2023-02-13T17:50:37;1.20;99.90
16823;DHT22;8528;49.976;11.858;2023-02-13T17:53:15;1.10;99.90
16823;DHT22;8528;49.976;11.858;2023-02-13T17:55:44;1.00;99.90
16823;DHT22;8528;49.976;11.858;2023-02-13T17:58:11;1.00;99.90
16823;DHT22;8528;49.976;11.858;2023-02-13T18:00:37;0.90;99.90
16823;DHT22;8528;49.976;11.858;2023-02-13T18:03:04;0.90;99.90
16823;DHT22;8528;49.976;11.858;2023-02-13T18:05:32;0.90;99.90
16823;DHT22;8528;49.976;11.858;2023-02-13T18:07:59;0.80;99.90
16823;DHT22;8528;49.976;11.858;2023-02-13T18:10:31;0.70;99.90
16823;DHT22;8528;49.976;11.858;2023-02-13T18:13:01;0.70;99.90
16823;DHT22;8528;49.976;11.858;2023-02-13T18:15:39;0.70;99.90
16823;DHT22;8528;49.976;11.858;2023-02-13T18:18:07;0.60;99.90
16823;DHT22;8528;49.976;11.858;2023-02-13T18:20:34;0.60;99.90
16823;DHT22;8528;49.976;11.858;2023-02-13T18:23:00;0.50;99.90
16823;DHT22;8528;49.976;11.858;2023-02-13T18:25:27;0.50;99.90
16823;DHT22;8528;49.976;11.858;2023-02-13T18:27:54;0.50;99.90
16823;DHT22;8528;49.976;11.858;2023-02-13T18:30:21;0.40;99.90
16823;DHT22;8528;49.976;11.858;2023-02-13T18:32:53;0.40;99.90
16823;DHT22;8528;49.976;11.858;2023-02-13T18:35:21;0.30;99.90
16823;DHT22;8528;49.976;11.858;2023-02-13T18:37:48;0.30;99.90
16823;DHT22;8528;49.976;11.858;2023-02-13T18:40:15;0.20;99.90
16823;DHT22;8528;49.976;11.858;2023-02-13T18:42:43;0.20;99.90
16823;DHT22;8528;49.976;11.858;2023-02-13T18:45:10;0.20;99.90
16823;DHT22;8528;49.976;11.858;2023-02-13T18:47:37;0.10;99.90
16823;DHT22;8528;49.976;11.858;2023-02-13T18:50:04;0.10;99.90
16823;DHT22;8528;49.976;11.858;2023-02-13T18:52:33;0.00;99.90
16823;DHT22;8528;49.976;11.858;2023-02-13T18:54:59;0.00;99.90
16823;DHT22;8528;49.976;11.858;2023-02-13T18:57:26;0.00;99.90
16823;DHT22;8528;49.976;11.858;2023-02-13T18:59:53;0.00;99.90
16823;DHT22;8528;49.976;11.858;2023-02-13T19:02:20;-0.10;99.90
16823;DHT22;8528;49.976;11.858;2023-02-13T19:04:48;-0.10;99.90
16823;DHT22;8528;49.976;11.858;2023-02-13T19:07:14;-0.10;99.90
16823;DHT22;8528;49.976;11.858;2023-02-13T19:09:42;-0.20;99.90